createdAt,value
2023-01-11T00:00:57.230Z,77.04
2023-01-11T00:03:24.222Z,77.24
2023-01-11T00:05:51.345Z,76.94
2023-01-11T00:08:19.899Z,77.05
2023-01-11T00:10:46.661Z,76.83
2023-01-11T00:13:14.546Z,76.61
2023-01-11T00:15:41.194Z,76.96
2023-01-11T00:18:07.862Z,77.41
2023-01-11T00:20:34.626Z,77.04
2023-01-11T00:23:01.627Z,76.98
2023-01-11T00:25:29.762Z,77.62
2023-01-11T00:27:56.859Z,77.21
2023-01-11T00:30:23.653Z,77.81
2023-01-11T00:32:50.498Z,77.27
2023-01-11T00:35:18.043Z,77.46
2023-01-11T00:37:44.900Z,77.38
2023-01-11T00:40:12.642Z,77.36
2023-01-11T00:42:59.286Z,77.33
2023-01-11T00:45:46.555Z,77.92
2023-01-11T00:48:13.749Z,77.62
2023-01-11T00:50:41.314Z,77.62
2023-01-11T00:53:09.040Z,77.50
2023-01-11T00:55:35.917Z,77.49
2023-01-11T00:58:03.483Z,77.30
2023-01-11T01:00:30.291Z,77.67
2023-01-11T01:02:57.327Z,77.04
2023-01-11T01:05:23.979Z,77.32
2023-01-11T01:07:50.901Z,77.94
2023-01-11T01:10:18.524Z,77.46
2023-01-11T01:13:05.638Z,77.69
2023-01-11T01:15:33.119Z,77.41
2023-01-11T01:17:59.757Z,77.81
2023-01-11T01:20:28.311Z,77.88
2023-01-11T01:22:57.185Z,77.79
2023-01-11T01:25:25.689Z,77.40
2023-01-11T01:27:54.097Z,77.29
2023-01-11T01:30:22.877Z,76.96
2023-01-11T01:32:51.219Z,77.70
2023-01-11T01:35:19.674Z,78.05
2023-01-11T01:37:47.855Z,77.86
2023-01-11T01:40:16.634Z,77.41
2023-01-11T01:42:45.362Z,77.09
2023-01-11T01:45:26.975Z,77.61
2023-01-11T01:48:00.515Z,77.82
2023-01-11T01:50:36.294Z,77.76
2023-01-11T01:53:10.099Z,78.17
2023-01-11T01:55:41.423Z,78.06
2023-01-11T01:58:13.174Z,77.43
2023-01-11T02:00:44.283Z,77.61
2023-01-11T02:03:19.167Z,77.69
2023-01-11T02:05:46.898Z,77.95
2023-01-11T02:08:24.409Z,77.72
2023-01-11T02:10:51.461Z,77.65
2023-01-11T02:13:18.307Z,77.91
2023-01-11T02:15:45.023Z,77.68
2023-01-11T02:18:13.578Z,77.60
2023-01-11T02:26:42.749Z,77.50
2023-01-11T02:29:20.912Z,77.71
2023-01-11T02:48:14.455Z,76.92
2023-01-11T02:50:59.218Z,77.86
2023-01-11T02:53:47.725Z,77.15
2023-01-11T02:56:19.909Z,77.06
2023-01-11T02:58:50.547Z,77.98
2023-01-11T03:01:19.841Z,77.85
2023-01-11T03:03:46.636Z,77.87
2023-01-11T03:09:19.597Z,76.88
2023-01-11T03:12:37.589Z,77.21
2023-01-11T03:15:24.133Z,76.94
2023-01-11T03:18:21.435Z,77.25
2023-01-11T03:20:54.561Z,76.66
2023-01-11T03:23:28.538Z,77.60
2023-01-11T03:26:05.487Z,76.65
2023-01-11T03:29:06.162Z,77.24
2023-01-11T03:31:39.288Z,76.51
2023-01-11T03:34:25.322Z,76.20
2023-01-11T03:39:34.647Z,76.52
2023-01-11T03:42:05.404Z,77.39
2023-01-11T03:44:36.794Z,76.65
2023-01-11T03:47:08.989Z,76.77
2023-01-11T03:52:25.770Z,76.77
2023-01-11T03:54:55.566Z,76.28
2023-01-11T03:57:29.539Z,76.50
2023-01-11T03:59:56.187Z,76.73
2023-01-11T04:02:26.541Z,77.27
2023-01-11T04:04:53.551Z,77.19
2023-01-11T04:07:20.192Z,76.19
2023-01-11T04:09:46.828Z,76.94
2023-01-11T04:12:13.425Z,76.16
2023-01-11T04:14:40.079Z,77.28
2023-01-11T04:17:06.635Z,76.90
2023-01-11T04:19:33.459Z,76.29
2023-01-11T04:22:00.112Z,76.82
2023-01-11T04:24:26.694Z,76.08
2023-01-11T04:26:53.415Z,76.67
2023-01-11T04:29:20.093Z,77.21
2023-01-11T04:31:46.994Z,76.27
2023-01-11T04:34:13.892Z,76.74
2023-01-11T04:36:40.835Z,76.27
2023-01-11T04:39:10.638Z,76.46
2023-01-11T04:41:58.344Z,76.61
2023-01-11T04:44:25.107Z,77.00
2023-01-11T04:46:51.697Z,77.32
2023-01-11T04:49:18.303Z,75.99
2023-01-11T04:51:44.874Z,77.08
2023-01-11T04:54:11.949Z,76.49
2023-01-11T04:56:38.634Z,77.02
2023-01-11T04:59:05.276Z,77.11
2023-01-11T05:01:31.937Z,76.97
2023-01-11T05:03:58.570Z,76.09
2023-01-11T05:06:25.975Z,75.89
2023-01-11T05:08:52.571Z,75.97
2023-01-11T05:11:19.300Z,76.59
2023-01-11T05:13:46.049Z,76.51
2023-01-11T05:16:19.447Z,76.91
2023-01-11T05:18:49.761Z,76.93
2023-01-11T05:21:18.312Z,77.97
2023-01-11T05:23:45.659Z,78.11
2023-01-11T05:26:15.779Z,77.28
2023-01-11T05:28:42.385Z,76.51
2023-01-11T05:31:09.274Z,77.19
2023-01-11T05:33:35.906Z,77.47
2023-01-11T05:36:05.443Z,77.09
2023-01-11T05:38:32.511Z,77.80
2023-01-11T05:41:01.536Z,76.49
2023-01-11T05:43:29.695Z,77.04
2023-01-11T05:45:57.747Z,77.90
2023-01-11T05:48:25.264Z,77.80
2023-01-11T05:50:55.253Z,77.91
2023-01-11T05:53:24.045Z,77.89
2023-01-11T05:55:53.817Z,77.42
2023-01-11T05:58:21.702Z,77.48
2023-01-11T06:00:51.586Z,78.16
2023-01-11T06:03:18.842Z,77.32
2023-01-11T06:05:46.988Z,77.92
2023-01-11T06:08:14.498Z,76.96
2023-01-11T06:10:42.137Z,78.33
2023-01-11T06:13:29.057Z,78.72
2023-01-11T06:16:14.173Z,77.51
2023-01-11T06:18:43.478Z,78.30
2023-01-11T06:21:11.175Z,77.84
2023-01-11T06:23:41.189Z,77.87
2023-01-11T06:26:10.722Z,78.41
2023-01-11T06:28:37.901Z,78.20
2023-01-11T06:31:05.731Z,77.96
2023-01-11T06:33:32.779Z,78.17
2023-01-11T06:36:02.523Z,77.88
2023-01-11T06:38:29.236Z,77.62
2023-01-11T06:40:58.409Z,77.83
2023-01-11T06:43:26.376Z,77.50
2023-01-11T06:45:53.988Z,78.50
2023-01-11T06:48:21.923Z,77.68
2023-01-11T06:50:50.277Z,78.66
2023-01-11T06:53:17.526Z,78.16
2023-01-11T06:55:44.678Z,78.12
2023-01-11T06:58:11.305Z,77.87
2023-01-11T07:00:38.278Z,77.18
2023-01-11T07:03:06.835Z,78.55
2023-01-11T07:05:35.576Z,77.36
2023-01-11T07:08:03.282Z,77.83
2023-01-11T07:10:30.372Z,78.42
2023-01-11T07:12:57.106Z,77.03
2023-01-11T07:15:23.982Z,76.62
2023-01-11T07:17:55.139Z,76.82
2023-01-11T07:20:22.518Z,77.34
2023-01-11T07:22:49.614Z,77.34
2023-01-11T07:25:16.497Z,76.73
2023-01-11T07:27:43.220Z,76.39
2023-01-11T07:30:10.790Z,76.63
2023-01-11T07:32:37.574Z,76.95
2023-01-11T07:35:04.462Z,77.58
2023-01-11T07:37:32.802Z,77.05
2023-01-11T07:39:59.422Z,76.66
2023-01-11T07:42:46.165Z,77.32
2023-01-11T07:45:13.010Z,76.70
2023-01-11T07:47:39.737Z,76.63
2023-01-11T07:50:07.081Z,76.54
2023-01-11T07:52:33.802Z,75.69
2023-01-11T07:55:02.690Z,75.93
2023-01-11T07:57:30.417Z,75.71
2023-01-11T07:59:57.409Z,76.32
2023-01-11T08:02:24.117Z,75.91
2023-01-11T08:04:50.888Z,76.91
2023-01-11T08:07:17.486Z,76.21
2023-01-11T08:09:44.121Z,76.08
2023-01-11T08:12:30.645Z,77.03
2023-01-11T08:14:57.345Z,76.24
2023-01-11T08:17:23.924Z,75.84
2023-01-11T08:19:50.976Z,76.08
2023-01-11T08:22:18.221Z,75.94
2023-01-11T08:24:44.921Z,75.39
2023-01-11T08:27:11.827Z,76.54
2023-01-11T08:29:39.864Z,76.52
2023-01-11T08:32:06.540Z,77.04
2023-01-11T08:34:34.762Z,75.43
2023-01-11T08:37:02.253Z,76.33
2023-01-11T08:39:31.218Z,75.67
2023-01-11T08:41:59.346Z,76.52
2023-01-11T08:44:33.981Z,76.21
2023-01-11T08:47:02.058Z,76.61
2023-01-11T08:49:30.535Z,75.16
2023-01-11T08:51:58.184Z,76.97
2023-01-11T08:54:25.319Z,76.01
2023-01-11T08:56:52.214Z,75.37
2023-01-11T08:59:20.170Z,74.23
2023-01-11T09:01:47.345Z,74.19
2023-01-11T09:04:24.365Z,74.37
2023-01-11T09:06:53.563Z,73.50
2023-01-11T09:09:20.696Z,72.74
2023-01-11T09:11:54.893Z,72.37
2023-01-11T09:14:23.330Z,71.40
2023-01-11T09:16:51.338Z,70.34
2023-01-11T09:19:18.043Z,69.73
2023-01-11T09:21:46.621Z,69.19
2023-01-11T09:24:13.899Z,69.14
2023-01-11T09:26:42.349Z,68.04
2023-01-11T09:29:10.441Z,67.58
2023-01-11T09:31:37.483Z,66.99
2023-01-11T09:34:04.960Z,67.53
2023-01-11T09:36:33.070Z,67.10
2023-01-11T09:39:01.873Z,64.67
2023-01-11T09:44:49.782Z,62.68
2023-01-11T09:48:01.030Z,62.54
2023-01-11T09:50:31.587Z,61.22
2023-01-11T09:53:03.326Z,60.61
2023-01-11T09:55:37.138Z,59.88
2023-01-11T10:19:41.057Z,54.63
2023-01-11T10:22:20.230Z,54.10
2023-01-11T10:24:55.088Z,53.04
2023-01-11T10:27:30.400Z,52.54
2023-01-11T10:30:20.842Z,51.67
2023-01-11T10:32:58.104Z,50.88
2023-01-11T10:35:45.824Z,51.01
2023-01-11T10:38:45.903Z,50.12
2023-01-11T10:41:26.066Z,50.12
2023-01-11T10:44:05.053Z,50.15
2023-01-11T10:46:36.060Z,48.62
2023-01-11T10:49:19.126Z,49.02
2023-01-11T10:51:49.149Z,50.02
2023-01-11T10:54:20.232Z,50.83
2023-01-11T11:03:00.455Z,53.44
2023-01-11T11:11:17.861Z,55.33
2023-01-11T11:16:58.137Z,55.60
2023-01-11T11:19:29.211Z,55.97
2023-01-11T11:21:55.870Z,56.39
2023-01-11T11:24:33.684Z,56.38
2023-01-11T11:27:08.858Z,57.40
2023-01-11T11:29:43.632Z,57.96
2023-01-11T11:32:20.958Z,57.86
2023-01-11T11:34:50.369Z,58.85
2023-01-11T11:37:28.791Z,58.20
2023-01-11T11:39:56.294Z,59.02
2023-01-11T11:42:23.170Z,58.42
2023-01-11T11:48:01.238Z,59.58
2023-01-11T11:50:43.584Z,58.58
2023-01-11T11:53:21.550Z,60.03
2023-01-11T11:55:48.486Z,59.20
2023-01-11T11:58:20.747Z,59.50
2023-01-11T12:00:50.072Z,59.09
2023-01-11T12:03:23.696Z,60.70
2023-01-11T12:05:54.219Z,60.33
2023-01-11T12:08:22.492Z,61.64
2023-01-11T12:10:54.444Z,60.71
2023-01-11T12:13:35.121Z,61.97
2023-01-11T12:16:20.257Z,61.78
2023-01-11T12:18:47.451Z,61.98
2023-01-11T12:24:17.415Z,62.56
2023-01-11T12:27:01.518Z,63.35
2023-01-11T12:46:14.574Z,65.12
2023-01-11T12:49:03.222Z,65.62
2023-01-11T13:03:05.946Z,65.95
2023-01-11T13:05:54.109Z,66.48
2023-01-11T13:16:26.327Z,66.83
2023-01-11T13:21:36.482Z,66.66
2023-01-11T13:24:10.771Z,66.67
2023-01-11T13:26:42.825Z,67.04
2023-01-11T13:29:17.001Z,66.84
2023-01-11T13:31:46.389Z,66.99
2023-01-11T13:34:20.358Z,67.39
2023-01-11T13:36:54.618Z,67.39
2023-01-11T13:39:29.814Z,67.83
2023-01-11T13:42:03.492Z,67.96
2023-01-11T13:44:37.190Z,68.11
2023-01-11T13:53:11.459Z,69.36
2023-01-11T13:58:37.581Z,70.14
2023-01-11T14:01:10.567Z,70.43
2023-01-11T14:12:09.677Z,71.66
2023-01-11T14:20:25.187Z,72.34
2023-01-11T14:23:02.165Z,72.34
2023-01-11T14:28:45.110Z,72.42
2023-01-11T14:37:25.169Z,73.80
2023-01-11T14:43:12.995Z,73.01
2023-01-11T14:51:54.232Z,73.74
2023-01-11T14:54:27.272Z,74.23
2023-01-11T14:56:56.392Z,73.45
2023-01-11T15:02:15.067Z,73.52
2023-01-11T15:07:37.490Z,74.04
2023-01-11T15:10:25.443Z,73.78
2023-01-11T15:12:55.958Z,74.17
2023-01-11T15:15:45.574Z,74.29
2023-01-11T15:18:18.949Z,75.11
2023-01-11T15:21:01.869Z,74.67
2023-01-11T15:23:34.332Z,74.16
2023-01-11T15:26:03.264Z,74.53
2023-01-11T15:36:54.916Z,75.09
2023-01-11T15:39:37.397Z,75.26
2023-01-11T15:42:32.541Z,76.21
2023-01-11T15:51:32.929Z,75.65
2023-01-11T16:05:34.142Z,76.75
2023-01-11T16:13:45.104Z,76.38
2023-01-11T16:16:20.843Z,76.80
2023-01-11T16:18:53.232Z,75.61
2023-01-11T16:21:30.920Z,75.95
2023-01-11T16:23:57.974Z,76.92
2023-01-11T16:26:25.532Z,75.85
2023-01-11T16:28:56.749Z,76.65
2023-01-11T16:31:23.788Z,76.67
2023-01-11T16:33:51.899Z,75.60
2023-01-11T16:36:21.952Z,76.56
2023-01-11T16:41:47.571Z,76.61
2023-01-11T16:44:27.755Z,76.08
2023-01-11T16:52:53.162Z,76.65
2023-01-11T16:55:34.007Z,76.30
2023-01-11T16:58:04.405Z,76.94
2023-01-11T17:00:36.379Z,76.77
2023-01-11T17:03:17.083Z,75.58
2023-01-11T17:09:06.724Z,76.88
2023-01-11T17:11:39.713Z,76.81
2023-01-11T17:17:02.410Z,75.82
2023-01-11T17:19:31.710Z,76.49
2023-01-11T17:22:16.600Z,75.80
2023-01-11T17:24:50.003Z,77.33
2023-01-11T17:27:22.914Z,76.45
2023-01-11T17:29:53.601Z,76.32
2023-01-11T17:32:28.242Z,76.19
2023-01-11T17:34:55.311Z,76.20
2023-01-11T17:37:22.414Z,75.96
2023-01-11T17:39:53.382Z,77.40
2023-01-11T17:42:40.306Z,77.60
2023-01-11T17:45:20.694Z,76.88
2023-01-11T17:47:51.255Z,77.07
2023-01-11T17:53:14.219Z,77.46
2023-01-11T17:55:59.433Z,77.48
2023-01-11T17:58:28.939Z,76.65
2023-01-11T18:01:18.336Z,77.84
2023-01-11T18:03:57.937Z,77.11
2023-01-11T18:09:06.134Z,77.67
2023-01-11T18:11:36.193Z,77.72
2023-01-11T18:14:06.607Z,76.34
2023-01-11T18:16:34.155Z,76.42
2023-01-11T18:19:01.154Z,77.31
2023-01-11T18:21:31.839Z,76.56
2023-01-11T18:27:17.589Z,77.10
2023-01-11T18:32:21.178Z,76.71
2023-01-11T18:34:51.258Z,77.46
2023-01-11T18:37:18.506Z,77.39
2023-01-11T18:39:45.253Z,76.73
2023-01-11T18:42:17.686Z,76.73
2023-01-11T18:44:46.810Z,77.05
2023-01-11T18:47:17.893Z,77.90
2023-01-11T18:49:45.615Z,76.33
2023-01-11T18:52:12.965Z,77.25
2023-01-11T18:54:40.053Z,76.66
2023-01-11T18:57:07.129Z,77.80
2023-01-11T18:59:34.116Z,77.81
2023-01-11T19:02:16.975Z,76.80
2023-01-11T19:04:44.468Z,76.54
2023-01-11T19:07:11.672Z,77.51
2023-01-11T19:09:38.455Z,77.39
2023-01-11T19:12:05.364Z,77.88
2023-01-11T19:17:09.975Z,77.94
2023-01-11T19:19:40.070Z,77.02
2023-01-11T19:22:06.828Z,78.35
2023-01-11T19:24:33.777Z,76.38
2023-01-11T19:27:00.474Z,78.06
2023-01-11T19:29:27.506Z,78.09
2023-01-11T19:31:55.772Z,76.68
2023-01-11T19:34:22.977Z,77.16
2023-01-11T19:36:51.412Z,77.15
2023-01-11T19:39:18.867Z,77.47
2023-01-11T19:42:02.521Z,78.33
2023-01-11T19:44:32.017Z,77.58
2023-01-11T19:47:10.929Z,77.34
2023-01-11T19:49:40.245Z,77.85
2023-01-11T19:52:12.999Z,77.91
2023-01-11T19:54:42.791Z,77.99
2023-01-11T19:57:20.471Z,77.63
2023-01-11T19:59:48.237Z,77.56
2023-01-11T20:02:16.753Z,78.46
2023-01-11T20:04:43.639Z,77.42
2023-01-11T20:07:12.108Z,77.88
2023-01-11T20:09:39.075Z,77.55
2023-01-11T20:12:07.341Z,77.98
2023-01-11T20:14:34.548Z,78.44
2023-01-11T20:17:01.545Z,78.28
2023-01-11T20:19:28.270Z,78.58
2023-01-11T20:21:56.032Z,77.88
2023-01-11T20:24:28.420Z,78.09
2023-01-11T20:26:56.362Z,78.25
2023-01-11T20:29:23.107Z,78.14
2023-01-11T20:31:49.785Z,78.95
2023-01-11T20:34:17.936Z,77.92
2023-01-11T20:36:45.061Z,78.68
2023-01-11T20:39:12.080Z,78.78
2023-01-11T20:41:54.353Z,78.58
2023-01-11T20:46:58.116Z,77.44
2023-01-11T20:49:30.284Z,78.86
2023-01-11T20:51:57.301Z,79.04
2023-01-11T20:54:24.251Z,78.15
2023-01-11T20:56:51.376Z,77.89
2023-01-11T20:59:20.315Z,79.01
2023-01-11T21:01:48.618Z,78.10
2023-01-11T21:04:16.458Z,79.11
2023-01-11T21:06:45.744Z,78.48
2023-01-11T21:09:14.935Z,78.41
2023-01-11T21:11:42.199Z,78.34
2023-01-11T21:14:12.117Z,78.35
2023-01-11T21:16:41.611Z,79.94
2023-01-11T21:19:11.652Z,78.82
2023-01-11T21:21:38.560Z,78.97
2023-01-11T21:24:06.077Z,79.50
2023-01-11T21:26:34.604Z,78.57
2023-01-11T21:29:04.555Z,78.72
2023-01-11T21:31:33.336Z,78.88
2023-01-11T21:34:01.198Z,79.55
2023-01-11T21:36:30.356Z,79.99
2023-01-11T21:38:58.496Z,79.85
2023-01-11T21:41:47.457Z,80.29
2023-01-11T21:44:15.637Z,79.81
2023-01-11T21:46:44.003Z,80.53
2023-01-11T21:49:12.808Z,80.79
2023-01-11T21:51:40.739Z,80.72
2023-01-11T21:54:12.405Z,79.98
2023-01-11T21:56:39.782Z,80.87
2023-01-11T21:59:06.507Z,81.39
2023-01-11T22:01:33.526Z,80.68
2023-01-11T22:04:05.834Z,80.64
2023-01-11T22:06:36.631Z,80.64
2023-01-11T22:09:05.209Z,81.66
2023-01-11T22:11:36.045Z,81.32
2023-01-11T22:14:04.105Z,81.75
2023-01-11T22:16:31.728Z,81.57
2023-01-11T22:19:00.005Z,81.35
2023-01-11T22:21:29.841Z,81.15
2023-01-11T22:24:00.014Z,82.27
2023-01-11T22:26:33.328Z,81.39
2023-01-11T22:29:16.548Z,81.32
2023-01-11T22:31:55.282Z,80.98
2023-01-11T22:34:23.611Z,81.52
2023-01-11T22:36:50.269Z,81.27
2023-01-11T22:39:20.536Z,81.58
2023-01-11T22:41:48.784Z,82.10
2023-01-11T22:44:16.193Z,82.45
2023-01-11T22:46:44.355Z,81.66
2023-01-11T22:49:12.645Z,82.18
2023-01-11T22:51:41.700Z,82.28
2023-01-11T22:54:09.229Z,81.86
2023-01-11T22:56:37.161Z,81.95
2023-01-11T22:59:03.900Z,81.93
2023-01-11T23:01:33.470Z,82.53
2023-01-11T23:04:01.176Z,82.73
2023-01-11T23:06:30.813Z,82.85
2023-01-11T23:08:58.598Z,82.11
2023-01-11T23:11:48.683Z,83.23
2023-01-11T23:14:18.066Z,83.28
2023-01-11T23:16:46.527Z,83.23
2023-01-11T23:19:16.411Z,82.59
2023-01-11T23:21:45.270Z,82.30
2023-01-11T23:24:14.402Z,82.64
2023-01-11T23:26:41.927Z,83.29
2023-01-11T23:29:08.606Z,83.45
2023-01-11T23:31:35.703Z,83.10
2023-01-11T23:34:04.205Z,82.87
2023-01-11T23:36:34.864Z,83.73
2023-01-11T23:39:02.743Z,83.26
2023-01-11T23:41:49.886Z,83.06
2023-01-11T23:44:18.229Z,84.05
2023-01-11T23:47:05.914Z,83.35
2023-01-11T23:49:32.936Z,84.22
2023-01-11T23:52:00.675Z,84.13
2023-01-11T23:54:31.206Z,84.29
2023-01-11T23:56:59.287Z,84.32
2023-01-11T23:59:25.983Z,83.71
